createdAt,value
2022-08-26T00:02:07.196Z,32.65
2022-08-26T00:04:35.423Z,26.63
2022-08-26T00:07:03.795Z,20.88
2022-08-26T00:09:37.313Z,35.33
2022-08-26T00:12:09.308Z,24.63
2022-08-26T00:14:40.846Z,25.33
2022-08-26T00:17:09.428Z,24.88
2022-08-26T00:19:38.094Z,26.58
2022-08-26T00:22:06.172Z,31.50
2022-08-26T00:24:35.593Z,26.98
2022-08-26T00:27:03.768Z,25.67
2022-08-26T00:29:34.936Z,31.83
2022-08-26T00:32:06.776Z,28.50
2022-08-26T00:34:35.319Z,28.85
2022-08-26T00:37:03.560Z,29.30
2022-08-26T00:39:31.958Z,24.23
2022-08-26T00:42:01.404Z,26.08
2022-08-26T00:44:30.320Z,30.20
2022-08-26T00:47:02.606Z,25.35
2022-08-26T00:49:36.977Z,28.02
2022-08-26T00:52:25.114Z,29.30
2022-08-26T00:55:05.289Z,27.08
2022-08-26T00:57:35.121Z,25.08
2022-08-26T01:00:09.206Z,25.95
2022-08-26T01:02:37.199Z,30.73
2022-08-26T01:05:07.484Z,24.25
2022-08-26T01:07:35.751Z,29.83
2022-08-26T01:10:06.376Z,28.25
2022-08-26T01:12:41.033Z,23.42
2022-08-26T01:15:11.430Z,26.13
2022-08-26T01:17:39.616Z,27.05
2022-08-26T01:20:11.533Z,20.05
2022-08-26T01:22:50.409Z,26.58
2022-08-26T01:25:20.802Z,38.45
2022-08-26T01:27:49.582Z,26.77
2022-08-26T01:30:19.097Z,22.85
2022-08-26T01:32:47.742Z,25.42
2022-08-26T01:35:16.072Z,28.02
2022-08-26T01:37:46.126Z,24.48
2022-08-26T01:40:18.050Z,23.60
2022-08-26T01:42:47.007Z,34.88
2022-08-26T01:45:19.682Z,25.20
2022-08-26T01:47:49.039Z,35.40
2022-08-26T01:50:27.706Z,28.85
2022-08-26T01:53:02.129Z,25.35
2022-08-26T01:55:33.185Z,34.25
2022-08-26T01:58:05.800Z,29.53
2022-08-26T02:03:17.906Z,21.10
2022-08-26T02:05:47.476Z,32.50
2022-08-26T02:08:24.684Z,23.48
2022-08-26T02:10:54.576Z,33.05
2022-08-26T02:13:23.263Z,29.42
2022-08-26T02:15:52.692Z,27.70
2022-08-26T02:18:20.775Z,37.58
2022-08-26T02:20:51.625Z,29.95
2022-08-26T02:23:21.243Z,29.08
2022-08-26T02:25:56.788Z,33.92
2022-08-26T02:28:26.938Z,26.17
2022-08-26T02:30:55.725Z,25.85
2022-08-26T02:33:23.933Z,30.65
2022-08-26T02:35:52.941Z,31.40
2022-08-26T02:38:23.386Z,34.47
2022-08-26T02:40:51.735Z,33.63
2022-08-26T02:43:31.185Z,29.73
2022-08-26T02:46:01.735Z,31.27
2022-08-26T02:48:31.461Z,34.17
2022-08-26T02:51:00.873Z,26.85
2022-08-26T02:53:31.761Z,29.42
2022-08-26T02:56:00.531Z,28.13
2022-08-26T02:58:28.504Z,26.17
2022-08-26T03:00:56.543Z,29.77
2022-08-26T03:03:24.637Z,32.30
2022-08-26T03:05:52.971Z,33.15
2022-08-26T03:08:22.336Z,34.47
2022-08-26T03:10:52.569Z,28.75
2022-08-26T03:13:20.870Z,26.60
2022-08-26T03:15:49.167Z,30.33
2022-08-26T03:18:17.212Z,29.50
2022-08-26T03:20:45.547Z,39.95
2022-08-26T03:23:13.647Z,31.35
2022-08-26T03:25:42.223Z,29.40
2022-08-26T03:28:12.159Z,28.10
2022-08-26T03:30:45.318Z,29.10
2022-08-26T03:33:14.469Z,30.70
2022-08-26T03:35:44.393Z,37.05
2022-08-26T03:38:12.859Z,33.08
2022-08-26T03:40:42.465Z,28.05
2022-08-26T03:43:12.970Z,28.10
2022-08-26T03:45:41.869Z,34.03
2022-08-26T03:48:11.326Z,36.00
2022-08-26T03:50:40.122Z,31.38
2022-08-26T03:53:12.690Z,27.88
2022-08-26T03:55:41.372Z,30.88
2022-08-26T03:58:09.628Z,25.15
2022-08-26T04:00:39.340Z,33.08
2022-08-26T04:03:10.056Z,30.85
2022-08-26T04:05:38.957Z,30.50
2022-08-26T04:08:07.000Z,33.90
2022-08-26T04:10:38.316Z,34.75
2022-08-26T04:13:06.443Z,37.63
2022-08-26T04:15:34.459Z,40.92
2022-08-26T04:18:03.799Z,29.85
2022-08-26T04:20:31.962Z,35.15
2022-08-26T04:23:00.342Z,39.33
2022-08-26T04:25:28.569Z,31.98
2022-08-26T04:27:56.825Z,34.92
2022-08-26T04:30:25.628Z,36.65
2022-08-26T04:32:53.666Z,29.27
2022-08-26T04:35:26.010Z,28.35
2022-08-26T04:40:22.659Z,30.70
2022-08-26T04:42:51.243Z,32.08
2022-08-26T04:45:22.886Z,32.42
2022-08-26T04:47:54.431Z,31.47
2022-08-26T04:50:25.758Z,32.70
2022-08-26T04:52:55.329Z,26.85
2022-08-26T04:55:25.316Z,36.33
2022-08-26T04:58:08.707Z,30.73
2022-08-26T05:03:10.327Z,25.63
2022-08-26T05:05:41.295Z,21.73
2022-08-26T05:08:11.358Z,22.33
2022-08-26T05:10:41.545Z,31.10
2022-08-26T05:13:11.045Z,26.83
2022-08-26T05:15:40.563Z,26.50
2022-08-26T05:18:10.488Z,27.73
2022-08-26T05:20:42.399Z,31.50
2022-08-26T05:23:10.509Z,28.70
2022-08-26T05:25:40.449Z,25.70
2022-08-26T05:28:08.678Z,28.60
2022-08-26T05:30:36.900Z,25.85
2022-08-26T05:33:05.795Z,26.08
2022-08-26T05:35:34.333Z,23.77
2022-08-26T05:38:10.403Z,39.78
2022-08-26T05:40:42.073Z,27.63
2022-08-26T05:43:10.699Z,24.50
2022-08-26T05:45:44.837Z,33.03
2022-08-26T05:48:14.858Z,17.80
2022-08-26T05:50:46.776Z,31.30
2022-08-26T05:53:18.377Z,26.02
2022-08-26T05:55:48.855Z,24.27
2022-08-26T05:58:20.022Z,20.50
2022-08-26T06:00:57.605Z,30.47
2022-08-26T06:03:25.689Z,16.33
2022-08-26T06:05:53.915Z,21.63
2022-08-26T06:08:23.261Z,22.30
2022-08-26T06:10:53.460Z,14.70
2022-08-26T06:13:24.474Z,23.40
2022-08-26T06:15:52.686Z,21.98
2022-08-26T06:18:23.784Z,17.48
2022-08-26T06:20:57.850Z,18.50
2022-08-26T06:23:47.164Z,15.75
2022-08-26T06:26:16.722Z,20.33
2022-08-26T06:28:45.820Z,22.42
2022-08-26T06:31:14.382Z,18.77
2022-08-26T06:33:42.720Z,17.77
2022-08-26T06:36:14.301Z,22.88
2022-08-26T06:38:44.536Z,24.98
2022-08-26T06:41:12.489Z,18.70
2022-08-26T06:43:43.355Z,18.92
2022-08-26T06:46:14.240Z,17.45
2022-08-26T06:48:42.232Z,19.65
2022-08-26T06:51:13.953Z,24.45
2022-08-26T06:53:45.593Z,27.83
2022-08-26T06:56:15.725Z,21.15
2022-08-26T06:58:44.326Z,27.85
2022-08-26T07:01:18.119Z,22.75
2022-08-26T07:03:46.626Z,23.48
2022-08-26T07:06:14.889Z,22.50
2022-08-26T07:08:45.881Z,27.48
2022-08-26T07:11:15.653Z,19.83
2022-08-26T07:13:44.794Z,25.00
2022-08-26T07:16:16.368Z,23.50
2022-08-26T07:18:48.587Z,25.98
2022-08-26T07:21:18.291Z,30.55
2022-08-26T07:23:48.915Z,28.60
2022-08-26T07:26:19.556Z,25.45
2022-08-26T07:28:50.531Z,22.17
2022-08-26T07:31:22.987Z,22.08
2022-08-26T07:33:51.536Z,34.42
2022-08-26T07:36:20.452Z,22.35
2022-08-26T07:38:50.074Z,22.90
2022-08-26T07:41:20.131Z,29.70
2022-08-26T07:43:48.217Z,21.77
2022-08-26T07:46:27.037Z,25.50
2022-08-26T07:48:56.363Z,28.70
2022-08-26T07:51:24.824Z,28.48
2022-08-26T07:53:54.744Z,26.88
2022-08-26T07:56:22.999Z,27.85
2022-08-26T07:58:51.840Z,20.92
2022-08-26T08:01:20.545Z,27.73
2022-08-26T08:03:51.364Z,27.10
2022-08-26T08:06:20.191Z,18.25
2022-08-26T08:08:50.891Z,23.10
2022-08-26T08:11:21.562Z,21.77
2022-08-26T08:13:56.550Z,27.48
2022-08-26T08:16:26.102Z,22.83
2022-08-26T08:18:54.410Z,24.35
2022-08-26T08:21:24.315Z,19.95
2022-08-26T08:23:53.650Z,25.55
2022-08-26T08:26:24.696Z,33.03
2022-08-26T08:28:56.213Z,21.27
2022-08-26T08:31:52.092Z,31.67
2022-08-26T08:34:15.066Z,22.15
2022-08-26T08:36:43.266Z,28.23
2022-08-26T08:39:12.192Z,20.23
2022-08-26T08:41:52.792Z,29.45
2022-08-26T08:46:53.364Z,26.80
2022-08-26T08:49:22.233Z,28.23
2022-08-26T08:51:55.121Z,30.58
2022-08-26T08:54:26.318Z,25.73
2022-08-26T08:57:00.586Z,30.85
2022-08-26T08:59:32.851Z,29.67
2022-08-26T09:02:10.855Z,20.10
2022-08-26T09:05:04.605Z,22.55
2022-08-26T09:07:36.875Z,38.25
2022-08-26T09:10:14.915Z,21.02
2022-08-26T09:12:47.265Z,28.70
2022-08-26T09:15:18.852Z,26.55
2022-08-26T09:17:51.588Z,26.98
2022-08-26T09:20:29.697Z,22.88
2022-08-26T09:22:58.076Z,23.60
2022-08-26T09:25:26.156Z,28.88
2022-08-26T09:27:55.425Z,27.20
2022-08-26T09:30:26.500Z,20.85
2022-08-26T09:33:03.523Z,21.30
2022-08-26T09:35:40.031Z,25.73
2022-08-26T09:38:22.650Z,21.85
2022-08-26T09:41:00.273Z,28.38
2022-08-26T09:43:29.856Z,21.63
2022-08-26T09:46:14.123Z,26.63
2022-08-26T09:48:43.504Z,22.13
2022-08-26T09:51:28.303Z,29.98
2022-08-26T09:53:58.043Z,36.38
2022-08-26T09:56:28.317Z,38.05
2022-08-26T09:58:58.133Z,23.67
2022-08-26T10:01:30.702Z,29.67
2022-08-26T10:04:07.356Z,27.17
2022-08-26T10:06:39.124Z,26.25
2022-08-26T10:09:09.880Z,24.85
2022-08-26T10:11:42.442Z,34.00
2022-08-26T10:14:18.860Z,27.17
2022-08-26T10:16:51.222Z,27.65
2022-08-26T10:19:22.430Z,26.20
2022-08-26T10:21:54.094Z,31.53
2022-08-26T10:24:25.398Z,27.52
2022-08-26T10:27:01.157Z,32.47
2022-08-26T10:29:35.483Z,30.42
2022-08-26T10:32:08.303Z,19.45
2022-08-26T10:34:42.300Z,25.80
2022-08-26T10:37:15.569Z,28.08
2022-08-26T10:39:51.889Z,26.30
2022-08-26T10:42:28.857Z,32.85
2022-08-26T10:47:32.551Z,25.73
2022-08-26T10:52:39.390Z,18.05
2022-08-26T10:55:12.939Z,16.80
2022-08-26T10:57:45.728Z,22.58
2022-08-26T11:00:35.178Z,27.63
2022-08-26T11:03:09.470Z,22.30
2022-08-26T11:06:16.859Z,28.08
2022-08-26T11:08:48.930Z,19.98
2022-08-26T11:11:42.340Z,11.10
2022-08-26T11:14:10.951Z,17.65
2022-08-26T11:16:42.929Z,20.35
2022-08-26T11:19:13.972Z,14.45
2022-08-26T11:25:06.492Z,13.77
2022-08-26T11:27:59.531Z,17.52
2022-08-26T11:30:53.221Z,15.00
2022-08-26T11:33:57.977Z,17.77
2022-08-26T11:36:40.196Z,14.18
2022-08-26T11:39:18.403Z,74.95
2022-08-26T11:41:48.194Z,33.70
2022-08-26T11:44:22.849Z,29.33
2022-08-26T11:46:57.927Z,24.30
2022-08-26T11:49:28.412Z,21.90
2022-08-26T11:52:12.769Z,25.13
2022-08-26T11:54:41.132Z,26.52
2022-08-26T11:57:13.440Z,23.38
2022-08-26T12:02:15.883Z,21.58
2022-08-26T12:04:49.806Z,22.42
2022-08-26T12:07:23.804Z,19.10
2022-08-26T12:09:56.430Z,24.95
2022-08-26T12:12:31.718Z,17.60
2022-08-26T12:15:10.079Z,15.68
2022-08-26T12:17:38.709Z,20.50
2022-08-26T12:20:18.774Z,21.95
2022-08-26T12:22:47.950Z,34.03
2022-08-26T12:25:23.559Z,44.55
2022-08-26T12:27:54.052Z,33.10
2022-08-26T12:30:23.981Z,38.75
2022-08-26T12:32:58.202Z,29.98
2022-08-26T12:35:29.510Z,25.00
2022-08-26T12:37:57.831Z,31.73
2022-08-26T12:40:28.893Z,45.60
2022-08-26T12:42:59.173Z,51.28
2022-08-26T12:45:29.391Z,38.28
2022-08-26T12:48:01.395Z,46.08
2022-08-26T12:50:32.601Z,51.25
2022-08-26T12:53:03.190Z,54.53
2022-08-26T12:55:40.266Z,45.28
2022-08-26T12:58:13.622Z,42.38
2022-08-26T13:00:43.484Z,34.40
2022-08-26T13:03:38.277Z,34.70
2022-08-26T13:06:15.919Z,30.17
2022-08-26T13:08:45.480Z,36.47
2022-08-26T13:11:18.494Z,35.80
2022-08-26T13:13:47.775Z,34.22
2022-08-26T13:16:16.612Z,28.20
2022-08-26T13:18:44.996Z,29.00
2022-08-26T13:21:18.023Z,22.92
2022-08-26T13:23:46.065Z,25.92
2022-08-26T13:26:14.495Z,24.13
2022-08-26T13:28:43.168Z,24.27
2022-08-26T13:31:12.052Z,23.45
2022-08-26T13:33:40.400Z,23.05
2022-08-26T13:36:09.712Z,26.33
2022-08-26T13:38:39.020Z,20.27
2022-08-26T13:41:07.085Z,25.75
2022-08-26T13:43:35.608Z,23.98
2022-08-26T13:46:04.025Z,20.20
2022-08-26T13:48:34.413Z,19.90
2022-08-26T13:51:03.207Z,22.05
2022-08-26T13:53:36.371Z,23.77
2022-08-26T13:56:10.859Z,19.65
2022-08-26T13:58:39.170Z,26.50
2022-08-26T14:01:07.535Z,33.15
2022-08-26T14:03:35.997Z,35.05
2022-08-26T14:06:04.091Z,32.80
2022-08-26T14:08:32.783Z,40.85
2022-08-26T14:11:01.310Z,33.75
2022-08-26T14:13:30.697Z,41.28
2022-08-26T14:16:01.387Z,51.58
2022-08-26T14:18:31.032Z,39.67
2022-08-26T14:20:59.281Z,40.85
2022-08-26T14:23:27.618Z,39.00
2022-08-26T14:25:55.614Z,40.20
2022-08-26T14:28:23.624Z,37.60
2022-08-26T14:30:56.895Z,42.85
2022-08-26T14:33:28.700Z,46.05
2022-08-26T14:36:17.416Z,37.10
2022-08-26T14:38:45.466Z,38.47
2022-08-26T14:41:13.870Z,43.72
2022-08-26T14:43:45.395Z,41.30
2022-08-26T14:46:16.192Z,33.35
2022-08-26T14:48:44.538Z,37.13
2022-08-26T14:51:12.598Z,32.45
2022-08-26T14:53:58.487Z,28.55
2022-08-26T14:56:34.200Z,36.60
2022-08-26T14:59:02.380Z,29.33
2022-08-26T15:01:33.078Z,27.70
2022-08-26T15:04:01.352Z,31.85
2022-08-26T15:06:30.097Z,33.47
2022-08-26T15:08:58.355Z,32.50
2022-08-26T15:11:26.876Z,30.15
2022-08-26T15:13:55.293Z,34.15
2022-08-26T15:16:23.614Z,25.30
2022-08-26T15:18:53.139Z,30.02
2022-08-26T15:21:21.998Z,28.85
2022-08-26T15:23:51.562Z,25.63
2022-08-26T15:26:20.251Z,38.72
2022-08-26T15:28:48.522Z,32.85
2022-08-26T15:31:16.676Z,31.42
2022-08-26T15:33:44.836Z,28.65
2022-08-26T15:36:14.404Z,30.35
2022-08-26T15:38:42.898Z,24.92
2022-08-26T15:41:11.149Z,23.08
2022-08-26T15:43:39.405Z,21.38
2022-08-26T15:46:11.392Z,18.17
2022-08-26T15:48:39.845Z,21.98
2022-08-26T15:51:09.021Z,18.55
2022-08-26T15:53:38.311Z,23.63
2022-08-26T15:56:06.724Z,16.65
2022-08-26T15:58:36.335Z,23.65
2022-08-26T16:01:04.369Z,21.42
2022-08-26T16:03:32.369Z,19.45
2022-08-26T16:06:00.624Z,20.58
2022-08-26T16:08:28.955Z,17.67
2022-08-26T16:13:31.861Z,17.35
2022-08-26T16:16:09.523Z,26.23
2022-08-26T16:18:37.966Z,24.15
2022-08-26T16:21:13.795Z,20.35
2022-08-26T16:23:45.000Z,20.98
2022-08-26T16:26:16.891Z,21.03
2022-08-26T16:28:44.973Z,26.73
2022-08-26T16:31:13.336Z,24.08
2022-08-26T16:33:41.533Z,24.23
2022-08-26T16:36:11.872Z,24.88
2022-08-26T16:38:40.532Z,23.13
2022-08-26T16:41:09.618Z,24.98
2022-08-26T16:43:38.925Z,24.00
2022-08-26T16:46:07.805Z,26.08
2022-08-26T16:48:38.337Z,22.63
2022-08-26T16:51:06.883Z,29.30
2022-08-26T16:53:34.892Z,27.77
2022-08-26T16:56:02.864Z,29.73
2022-08-26T16:58:31.316Z,28.55
2022-08-26T17:01:01.197Z,27.75
2022-08-26T17:03:29.164Z,27.05
2022-08-26T17:05:57.297Z,30.20
2022-08-26T17:08:28.919Z,31.00
2022-08-26T17:10:59.971Z,28.95
2022-08-26T17:13:35.567Z,33.13
2022-08-26T17:16:06.358Z,29.67
2022-08-26T17:18:35.539Z,24.25
2022-08-26T17:21:06.048Z,28.08
2022-08-26T17:23:34.407Z,24.40
2022-08-26T17:26:02.607Z,30.73
2022-08-26T17:28:30.739Z,29.10
2022-08-26T17:30:58.926Z,25.30
2022-08-26T17:33:29.192Z,40.72
2022-08-26T17:35:57.400Z,38.70
2022-08-26T17:38:28.877Z,29.73
2022-08-26T17:40:57.078Z,32.67
2022-08-26T17:43:26.745Z,27.00
2022-08-26T17:45:59.106Z,30.17
2022-08-26T17:48:37.502Z,33.50
2022-08-26T17:51:08.708Z,29.42
2022-08-26T17:53:37.140Z,30.27
2022-08-26T17:56:07.346Z,42.83
2022-08-26T17:58:36.508Z,35.97
2022-08-26T18:01:06.045Z,35.22
2022-08-26T18:03:36.318Z,36.53
2022-08-26T18:06:09.459Z,44.28
2022-08-26T18:08:37.862Z,34.72
2022-08-26T18:11:09.353Z,32.08
2022-08-26T18:13:37.871Z,32.95
2022-08-26T18:16:14.057Z,33.08
2022-08-26T18:18:43.682Z,33.92
2022-08-26T18:21:16.542Z,32.72
2022-08-26T18:23:44.943Z,34.58
2022-08-26T18:26:17.599Z,34.85
2022-08-26T18:28:45.961Z,34.80
2022-08-26T18:31:15.282Z,33.67
2022-08-26T18:33:45.136Z,36.40
2022-08-26T18:36:17.024Z,34.47
2022-08-26T18:38:45.441Z,36.08
2022-08-26T18:41:14.591Z,38.65
2022-08-26T18:43:43.231Z,41.13
2022-08-26T18:46:11.782Z,40.00
2022-08-26T18:48:41.285Z,36.38
2022-08-26T18:51:16.925Z,38.50
2022-08-26T18:53:47.827Z,39.08
2022-08-26T18:56:18.157Z,41.65
2022-08-26T18:58:46.802Z,45.15
2022-08-26T19:01:15.771Z,47.15
2022-08-26T19:03:44.049Z,42.85
2022-08-26T19:06:20.020Z,39.17
2022-08-26T19:08:49.906Z,42.50
2022-08-26T19:11:32.645Z,41.30
2022-08-26T19:14:07.611Z,47.17
2022-08-26T19:16:36.549Z,46.45
2022-08-26T19:19:04.705Z,45.20
2022-08-26T19:21:35.683Z,46.63
2022-08-26T19:24:06.041Z,48.53
2022-08-26T19:26:34.948Z,46.90
2022-08-26T19:29:03.160Z,41.40
2022-08-26T19:31:31.274Z,51.53
2022-08-26T19:34:00.031Z,53.53
2022-08-26T19:36:29.625Z,52.65
2022-08-26T19:39:00.186Z,57.78
2022-08-26T19:41:37.037Z,56.30
2022-08-26T19:44:08.872Z,51.92
2022-08-26T19:49:05.507Z,63.17
2022-08-26T19:51:35.444Z,60.75
2022-08-26T19:54:05.258Z,58.58
2022-08-26T19:56:33.229Z,59.58
2022-08-26T19:59:01.266Z,68.95
2022-08-26T20:01:29.424Z,66.22
2022-08-26T20:03:57.504Z,64.18
2022-08-26T20:06:25.495Z,67.07
2022-08-26T20:08:53.941Z,66.90
2022-08-26T20:11:25.727Z,59.88
2022-08-26T20:13:54.089Z,67.97
2022-08-26T20:16:22.192Z,56.92
2022-08-26T20:19:07.597Z,63.55
2022-08-26T20:21:38.181Z,67.53
2022-08-26T20:24:08.812Z,65.85
2022-08-26T20:26:39.770Z,61.03
2022-08-26T20:29:08.820Z,74.57
2022-08-26T20:31:36.946Z,70.30
2022-08-26T20:34:05.598Z,61.97
2022-08-26T20:36:34.636Z,71.07
2022-08-26T20:39:02.681Z,73.05
2022-08-26T20:41:31.464Z,65.15
2022-08-26T20:44:01.873Z,74.00
2022-08-26T20:46:30.151Z,65.18
2022-08-26T20:48:58.686Z,70.15
2022-08-26T20:51:27.935Z,72.55
2022-08-26T20:53:56.072Z,65.45
2022-08-26T20:56:26.519Z,75.32
2022-08-26T20:58:56.228Z,72.80
2022-08-26T21:01:28.073Z,70.32
2022-08-26T21:03:57.534Z,79.38
2022-08-26T21:06:25.701Z,80.13
2022-08-26T21:08:54.625Z,78.95
2022-08-26T21:11:22.905Z,75.85
2022-08-26T21:14:15.673Z,79.75
2022-08-26T21:16:41.480Z,76.43
2022-08-26T21:19:11.577Z,79.25
2022-08-26T21:21:40.670Z,73.15
2022-08-26T21:24:09.035Z,74.82
2022-08-26T21:26:37.516Z,74.13
2022-08-26T21:29:06.707Z,70.78
2022-08-26T21:31:35.020Z,76.80
2022-08-26T21:34:04.566Z,75.97
2022-08-26T21:36:32.540Z,77.90
2022-08-26T21:39:01.425Z,78.72
2022-08-26T21:41:29.630Z,75.25
2022-08-26T21:43:59.567Z,66.90
2022-08-26T21:46:29.613Z,74.63
2022-08-26T21:48:59.047Z,76.05
2022-08-26T21:51:30.325Z,76.35
2022-08-26T21:53:59.563Z,88.13
2022-08-26T21:56:29.475Z,83.20
2022-08-26T21:58:58.894Z,80.32
2022-08-26T22:01:32.454Z,88.32
2022-08-26T22:04:00.509Z,88.07
2022-08-26T22:06:30.032Z,87.07
2022-08-26T22:08:58.456Z,82.43
2022-08-26T22:11:27.409Z,78.07
2022-08-26T22:13:56.787Z,92.60
2022-08-26T22:16:27.065Z,76.68
2022-08-26T22:18:55.359Z,95.32
2022-08-26T22:21:25.431Z,96.22
2022-08-26T22:23:58.045Z,98.47
2022-08-26T22:26:28.206Z,99.85
2022-08-26T22:28:59.063Z,112.80
2022-08-26T22:31:35.258Z,116.43
2022-08-26T22:34:07.385Z,114.20
2022-08-26T22:36:35.513Z,95.00
2022-08-26T22:39:10.486Z,100.30
2022-08-26T22:41:38.662Z,101.97
2022-08-26T22:44:06.674Z,119.82
2022-08-26T22:46:36.765Z,112.07
2022-08-26T22:49:05.326Z,133.57
2022-08-26T22:51:33.378Z,127.60
2022-08-26T22:54:01.587Z,110.05
2022-08-26T22:56:30.952Z,118.47
2022-08-26T22:58:59.026Z,122.32
2022-08-26T23:01:27.523Z,127.22
2022-08-26T23:03:55.555Z,124.22
2022-08-26T23:06:24.175Z,119.97
2022-08-26T23:08:53.118Z,104.97
2022-08-26T23:11:21.076Z,126.20
2022-08-26T23:13:50.381Z,140.25
2022-08-26T23:16:18.455Z,129.15
2022-08-26T23:18:46.999Z,117.78
2022-08-26T23:21:15.207Z,135.68
2022-08-26T23:23:44.245Z,143.60
2022-08-26T23:26:17.447Z,156.13
2022-08-26T23:28:46.150Z,136.05
2022-08-26T23:31:15.538Z,155.63
2022-08-26T23:34:01.000Z,140.32
2022-08-26T23:36:31.125Z,137.98
2022-08-26T23:39:03.846Z,129.40
2022-08-26T23:41:32.208Z,127.95
2022-08-26T23:44:03.403Z,123.28
2022-08-26T23:46:33.751Z,123.20
2022-08-26T23:49:02.045Z,121.85
2022-08-26T23:51:47.328Z,125.65
2022-08-26T23:54:16.531Z,115.18
2022-08-26T23:56:44.796Z,104.88
2022-08-26T23:59:12.838Z,117.00
